sensor_id;sensor_type;location;lat;lon;timestamp;P1;durP1;ratioP1;P2;durP2;ratioP2
5827;SDS011;42583;50.240;8.444;2024-02-15T00:03:48;435.45;;;11.20;;
5827;SDS011;42583;50.240;8.444;2024-02-15T00:18:50;306.90;;;10.25;;
5827;SDS011;42583;50.240;8.444;2024-02-15T00:33:50;509.27;;;15.20;;
5827;SDS011;42583;50.240;8.444;2024-02-15T00:48:51;54.25;;;7.20;;
5827;SDS011;42583;50.240;8.444;2024-02-15T01:03:52;19.35;;;6.28;;
5827;SDS011;42583;50.240;8.444;2024-02-15T01:18:52;39.97;;;6.15;;
5827;SDS011;42583;50.240;8.444;2024-02-15T01:33:53;109.72;;;7.68;;
5827;SDS011;42583;50.240;8.444;2024-02-15T01:48:53;18.95;;;5.38;;
5827;SDS011;42583;50.240;8.444;2024-02-15T02:03:56;35.20;;;6.35;;
5827;SDS011;42583;50.240;8.444;2024-02-15T02:18:57;78.95;;;7.13;;
5827;SDS011;42583;50.240;8.444;2024-02-15T02:33:58;25.33;;;5.45;;
5827;SDS011;42583;50.240;8.444;2024-02-15T02:48:58;654.40;;;18.40;;
5827;SDS011;42583;50.240;8.444;2024-02-15T03:03:59;453.63;;;12.63;;
5827;SDS011;42583;50.240;8.444;2024-02-15T03:19:00;418.17;;;12.20;;
5827;SDS011;42583;50.240;8.444;2024-02-15T03:34:04;681.63;;;19.60;;
5827;SDS011;42583;50.240;8.444;2024-02-15T03:49:05;622.63;;;15.07;;
5827;SDS011;42583;50.240;8.444;2024-02-15T04:04:07;830.95;;;21.13;;
5827;SDS011;42583;50.240;8.444;2024-02-15T04:19:08;493.70;;;12.95;;
5827;SDS011;42583;50.240;8.444;2024-02-15T04:34:08;91.35;;;6.13;;
5827;SDS011;42583;50.240;8.444;2024-02-15T04:49:09;12.00;;;4.00;;
5827;SDS011;42583;50.240;8.444;2024-02-15T05:04:13;18.42;;;3.97;;
5827;SDS011;42583;50.240;8.444;2024-02-15T05:19:16;9.65;;;3.20;;
5827;SDS011;42583;50.240;8.444;2024-02-15T05:34:17;12.27;;;2.97;;
5827;SDS011;42583;50.240;8.444;2024-02-15T05:49:18;13.48;;;4.07;;
5827;SDS011;42583;50.240;8.444;2024-02-15T06:04:19;12.32;;;4.40;;
5827;SDS011;42583;50.240;8.444;2024-02-15T06:19:20;12.20;;;3.20;;
5827;SDS011;42583;50.240;8.444;2024-02-15T06:34:21;10.27;;;3.03;;
5827;SDS011;42583;50.240;8.444;2024-02-15T06:49:41;5.78;;;2.20;;
5827;SDS011;42583;50.240;8.444;2024-02-15T07:04:44;5.22;;;2.00;;
5827;SDS011;42583;50.240;8.444;2024-02-15T07:19:45;5.22;;;1.90;;
5827;SDS011;42583;50.240;8.444;2024-02-15T07:34:49;5.88;;;1.85;;
5827;SDS011;42583;50.240;8.444;2024-02-15T07:49:50;8.48;;;1.92;;
5827;SDS011;42583;50.240;8.444;2024-02-15T08:04:50;5.97;;;2.00;;
5827;SDS011;42583;50.240;8.444;2024-02-15T08:19:51;6.35;;;2.55;;
5827;SDS011;42583;50.240;8.444;2024-02-15T08:34:52;5.95;;;1.90;;
5827;SDS011;42583;50.240;8.444;2024-02-15T08:49:52;5.18;;;2.15;;
5827;SDS011;42583;50.240;8.444;2024-02-15T09:04:53;5.93;;;2.90;;
5827;SDS011;42583;50.240;8.444;2024-02-15T09:19:54;5.28;;;2.47;;
5827;SDS011;42583;50.240;8.444;2024-02-15T09:34:55;5.05;;;2.30;;
5827;SDS011;42583;50.240;8.444;2024-02-15T09:49:56;5.57;;;2.25;;
5827;SDS011;42583;50.240;8.444;2024-02-15T10:04:59;5.30;;;2.10;;
5827;SDS011;42583;50.240;8.444;2024-02-15T10:20:04;3.88;;;1.70;;
5827;SDS011;42583;50.240;8.444;2024-02-15T10:35:05;3.95;;;1.50;;
5827;SDS011;42583;50.240;8.444;2024-02-15T10:50:06;3.85;;;1.30;;
5827;SDS011;42583;50.240;8.444;2024-02-15T11:05:08;5.07;;;1.50;;
5827;SDS011;42583;50.240;8.444;2024-02-15T11:20:10;5.97;;;1.60;;
5827;SDS011;42583;50.240;8.444;2024-02-15T11:35:33;4.30;;;1.38;;
5827;SDS011;42583;50.240;8.444;2024-02-15T11:50:35;4.25;;;1.40;;
5827;SDS011;42583;50.240;8.444;2024-02-15T12:05:36;3.20;;;1.50;;
5827;SDS011;42583;50.240;8.444;2024-02-15T12:20:55;7.20;;;1.80;;
5827;SDS011;42583;50.240;8.444;2024-02-15T12:36:05;6.38;;;1.58;;
5827;SDS011;42583;50.240;8.444;2024-02-15T12:51:13;5.95;;;1.70;;
5827;SDS011;42583;50.240;8.444;2024-02-15T13:06:14;4.88;;;1.40;;
5827;SDS011;42583;50.240;8.444;2024-02-15T13:21:15;5.60;;;1.70;;
5827;SDS011;42583;50.240;8.444;2024-02-15T13:36:17;5.47;;;1.60;;
5827;SDS011;42583;50.240;8.444;2024-02-15T13:51:19;5.18;;;1.70;;
5827;SDS011;42583;50.240;8.444;2024-02-15T14:06:20;6.75;;;1.40;;
5827;SDS011;42583;50.240;8.444;2024-02-15T14:21:20;5.60;;;1.38;;
5827;SDS011;42583;50.240;8.444;2024-02-15T14:36:21;4.63;;;1.60;;
5827;SDS011;42583;50.240;8.444;2024-02-15T14:51:22;3.58;;;1.40;;
5827;SDS011;42583;50.240;8.444;2024-02-15T15:06:23;2.65;;;1.40;;
5827;SDS011;42583;50.240;8.444;2024-02-15T15:21:42;5.18;;;1.60;;
5827;SDS011;42583;50.240;8.444;2024-02-15T15:36:43;6.53;;;1.90;;
5827;SDS011;42583;50.240;8.444;2024-02-15T15:51:43;4.07;;;1.70;;
5827;SDS011;42583;50.240;8.444;2024-02-15T16:06:46;6.40;;;1.85;;
5827;SDS011;42583;50.240;8.444;2024-02-15T16:21:46;5.00;;;1.80;;
5827;SDS011;42583;50.240;8.444;2024-02-15T16:36:47;5.15;;;1.77;;
5827;SDS011;42583;50.240;8.444;2024-02-15T16:51:49;5.22;;;1.92;;
5827;SDS011;42583;50.240;8.444;2024-02-15T17:06:50;2.67;;;1.30;;
5827;SDS011;42583;50.240;8.444;2024-02-15T17:21:51;3.20;;;1.40;;
5827;SDS011;42583;50.240;8.444;2024-02-15T17:36:52;2.90;;;1.30;;
5827;SDS011;42583;50.240;8.444;2024-02-15T17:51:52;3.33;;;1.38;;
5827;SDS011;42583;50.240;8.444;2024-02-15T18:06:53;3.75;;;1.40;;
5827;SDS011;42583;50.240;8.444;2024-02-15T18:21:53;6.13;;;1.30;;
5827;SDS011;42583;50.240;8.444;2024-02-15T18:36:57;3.85;;;1.35;;
5827;SDS011;42583;50.240;8.444;2024-02-15T18:51:58;2.63;;;1.42;;
5827;SDS011;42583;50.240;8.444;2024-02-15T19:06:58;2.50;;;1.30;;
5827;SDS011;42583;50.240;8.444;2024-02-15T19:21:59;3.05;;;1.50;;
5827;SDS011;42583;50.240;8.444;2024-02-15T19:37:00;4.72;;;1.70;;
5827;SDS011;42583;50.240;8.444;2024-02-15T19:52:01;4.97;;;1.70;;
5827;SDS011;42583;50.240;8.444;2024-02-15T20:07:05;4.53;;;1.50;;
5827;SDS011;42583;50.240;8.444;2024-02-15T20:22:09;3.67;;;1.50;;
5827;SDS011;42583;50.240;8.444;2024-02-15T20:37:09;5.30;;;1.50;;
5827;SDS011;42583;50.240;8.444;2024-02-15T20:52:10;4.53;;;1.70;;
5827;SDS011;42583;50.240;8.444;2024-02-15T21:07:10;3.28;;;1.50;;
5827;SDS011;42583;50.240;8.444;2024-02-15T21:22:11;4.47;;;1.52;;
5827;SDS011;42583;50.240;8.444;2024-02-15T21:37:11;2.25;;;1.40;;
5827;SDS011;42583;50.240;8.444;2024-02-15T21:52:12;6.15;;;1.60;;
5827;SDS011;42583;50.240;8.444;2024-02-15T22:07:14;4.43;;;1.58;;
5827;SDS011;42583;50.240;8.444;2024-02-15T22:22:20;4.75;;;1.75;;
5827;SDS011;42583;50.240;8.444;2024-02-15T22:37:20;3.55;;;1.65;;
5827;SDS011;42583;50.240;8.444;2024-02-15T22:52:21;4.57;;;1.80;;
5827;SDS011;42583;50.240;8.444;2024-02-15T23:07:21;3.53;;;1.80;;
5827;SDS011;42583;50.240;8.444;2024-02-15T23:22:23;6.70;;;2.40;;
5827;SDS011;42583;50.240;8.444;2024-02-15T23:37:23;7.47;;;2.45;;
5827;SDS011;42583;50.240;8.444;2024-02-15T23:52:43;6.00;;;2.50;;
